createdAt,value
2018-03-22T00:00:48.630Z,1006.08
2018-03-22T00:01:48.654Z,1006.02
2018-03-22T00:02:48.676Z,1006.03
2018-03-22T00:03:48.699Z,1006.02
2018-03-22T00:04:48.724Z,1006.04
2018-03-22T00:05:48.747Z,1006.10
2018-03-22T00:06:48.771Z,1006.04
2018-03-22T00:07:48.794Z,1006.07
2018-03-22T00:08:48.817Z,1006.05
2018-03-22T00:09:48.841Z,1006.06
2018-03-22T00:10:48.864Z,1006.02
2018-03-22T00:11:48.937Z,1005.99
2018-03-22T00:12:48.911Z,1006.06
2018-03-22T00:13:48.935Z,1006.02
2018-03-22T00:14:48.959Z,1006.01
2018-03-22T00:15:48.981Z,1005.97
2018-03-22T00:16:49.006Z,1005.98
2018-03-22T00:17:49.028Z,1005.92
2018-03-22T00:18:49.054Z,1005.90
2018-03-22T00:19:49.075Z,1005.86
2018-03-22T00:20:49.096Z,1005.88
2018-03-22T00:21:49.126Z,1005.85
2018-03-22T00:22:49.144Z,1005.89
2018-03-22T00:23:49.168Z,1005.85
2018-03-22T00:24:49.192Z,1005.82
2018-03-22T00:25:49.215Z,1005.78
2018-03-22T00:26:49.238Z,1005.76
2018-03-22T00:27:49.262Z,1005.76
2018-03-22T00:28:49.285Z,1005.74
2018-03-22T00:29:49.309Z,1005.74
2018-03-22T00:30:49.331Z,1005.74
2018-03-22T00:31:49.355Z,1005.70
2018-03-22T00:32:49.379Z,1005.72
2018-03-22T00:33:49.401Z,1005.69
2018-03-22T00:34:49.423Z,1005.70
2018-03-22T00:35:49.446Z,1005.64
2018-03-22T00:36:49.470Z,1005.63
2018-03-22T00:37:49.499Z,1005.66
2018-03-22T00:38:49.516Z,1005.67
2018-03-22T00:39:49.539Z,1005.67
2018-03-22T00:40:49.563Z,1005.64
2018-03-22T00:41:49.591Z,1005.63
2018-03-22T00:42:49.608Z,1005.65
2018-03-22T00:43:49.635Z,1005.62
2018-03-22T00:44:49.656Z,1005.67
2018-03-22T00:45:49.681Z,1005.63
2018-03-22T00:46:49.703Z,1005.64
2018-03-22T00:47:49.727Z,1005.62
2018-03-22T00:48:49.752Z,1005.60
2018-03-22T00:49:49.774Z,1005.59
2018-03-22T00:50:49.797Z,1005.59
2018-03-22T00:51:49.820Z,1005.56
2018-03-22T00:52:49.844Z,1005.55
2018-03-22T00:53:49.867Z,1005.49
2018-03-22T00:54:49.890Z,1005.48
2018-03-22T00:55:49.914Z,1005.48
2018-03-22T00:56:49.938Z,1005.44
2018-03-22T00:57:49.962Z,1005.46
2018-03-22T00:58:49.984Z,1005.54
2018-03-22T00:59:50.009Z,1005.44
2018-03-22T01:00:50.032Z,1005.45
2018-03-22T01:01:50.068Z,1005.44
2018-03-22T01:02:50.078Z,1005.36
2018-03-22T01:03:50.101Z,1005.39
2018-03-22T01:04:50.127Z,1005.41
2018-03-22T01:05:50.150Z,1005.39
2018-03-22T01:06:50.172Z,1005.39
2018-03-22T01:07:50.197Z,1005.36
2018-03-22T01:08:50.224Z,1005.33
2018-03-22T01:09:50.244Z,1005.35
2018-03-22T01:10:50.267Z,1005.35
2018-03-22T01:11:50.292Z,1005.27
2018-03-22T01:12:50.315Z,1005.34
2018-03-22T01:13:50.338Z,1005.33
2018-03-22T01:14:50.361Z,1005.32
2018-03-22T01:15:50.385Z,1005.31
2018-03-22T01:16:50.408Z,1005.33
2018-03-22T01:17:50.432Z,1005.29
2018-03-22T01:18:50.454Z,1005.26
2018-03-22T01:19:50.479Z,1005.30
2018-03-22T01:20:50.507Z,1005.30
2018-03-22T01:21:50.526Z,1005.29
2018-03-22T01:22:50.551Z,1005.27
2018-03-22T01:23:50.573Z,1005.23
2018-03-22T01:24:50.597Z,1005.17
2018-03-22T01:25:50.620Z,1005.17
2018-03-22T01:26:50.643Z,1005.10
2018-03-22T01:27:50.667Z,1005.12
2018-03-22T01:28:50.690Z,1005.10
2018-03-22T01:29:50.714Z,1005.07
2018-03-22T01:30:50.735Z,1005.08
2018-03-22T01:31:50.760Z,1005.06
2018-03-22T01:32:50.784Z,1005.02
2018-03-22T01:33:50.809Z,1005.03
2018-03-22T01:34:50.830Z,1005.07
2018-03-22T01:35:50.854Z,1005.09
2018-03-22T01:36:50.879Z,1005.03
2018-03-22T01:37:50.902Z,1005.05
2018-03-22T01:38:50.925Z,1005.05
2018-03-22T01:39:50.946Z,1005.15
2018-03-22T01:40:50.971Z,1005.16
2018-03-22T01:41:50.995Z,1005.10
2018-03-22T01:42:51.018Z,1005.12
2018-03-22T01:43:51.046Z,1005.07
2018-03-22T01:44:51.064Z,1005.05
2018-03-22T01:45:51.088Z,1005.06
2018-03-22T01:46:51.110Z,1005.06
2018-03-22T01:47:51.135Z,1005.02
2018-03-22T01:48:51.157Z,1004.98
2018-03-22T01:49:51.181Z,1005.04
2018-03-22T01:50:51.203Z,1005.00
2018-03-22T01:51:51.227Z,1005.05
2018-03-22T01:52:51.251Z,1005.03
2018-03-22T01:53:51.273Z,1004.97
2018-03-22T01:54:51.297Z,1005.00
2018-03-22T01:55:51.320Z,1005.02
2018-03-22T01:56:51.345Z,1004.93
2018-03-22T01:57:51.369Z,1005.00
2018-03-22T01:58:51.389Z,1004.98
2018-03-22T01:59:51.413Z,1004.92
2018-03-22T02:00:51.437Z,1004.99
2018-03-22T02:01:51.470Z,1004.91
2018-03-22T02:02:51.482Z,1004.88
2018-03-22T02:03:51.506Z,1004.91
2018-03-22T02:04:51.530Z,1004.96
2018-03-22T02:05:51.553Z,1004.97
2018-03-22T02:06:51.576Z,1004.95
2018-03-22T02:07:51.598Z,1004.94
2018-03-22T02:08:51.622Z,1004.96
2018-03-22T02:09:51.646Z,1004.94
2018-03-22T02:10:51.669Z,1004.94
2018-03-22T02:11:51.692Z,1004.92
2018-03-22T02:12:51.714Z,1004.87
2018-03-22T02:13:51.741Z,1004.92
2018-03-22T02:14:51.761Z,1004.89
2018-03-22T02:15:51.783Z,1004.89
2018-03-22T02:16:51.806Z,1004.85
2018-03-22T02:17:51.830Z,1004.84
2018-03-22T02:18:51.854Z,1004.83
2018-03-22T02:19:51.878Z,1004.79
2018-03-22T02:20:51.903Z,1004.83
2018-03-22T02:21:51.923Z,1004.86
2018-03-22T02:22:51.946Z,1004.78
2018-03-22T02:23:51.968Z,1004.81
2018-03-22T02:24:51.991Z,1004.82
2018-03-22T02:25:52.016Z,1004.80
2018-03-22T02:26:52.037Z,1004.85
2018-03-22T02:27:52.062Z,1004.78
2018-03-22T02:28:52.084Z,1004.81
2018-03-22T02:29:52.107Z,1004.78
2018-03-22T02:30:52.130Z,1004.78
2018-03-22T02:31:52.154Z,1004.77
2018-03-22T02:32:52.180Z,1004.80
2018-03-22T02:33:52.199Z,1004.78
2018-03-22T02:34:52.222Z,1004.78
2018-03-22T02:35:52.246Z,1004.72
2018-03-22T02:36:52.268Z,1004.73
2018-03-22T02:37:52.293Z,1004.74
2018-03-22T02:38:52.316Z,1004.77
2018-03-22T02:39:52.337Z,1004.73
2018-03-22T02:40:52.361Z,1004.78
2018-03-22T02:41:52.384Z,1004.75
2018-03-22T02:42:52.409Z,1004.73
2018-03-22T02:43:52.428Z,1004.70
2018-03-22T02:44:52.453Z,1004.71
2018-03-22T02:45:52.475Z,1004.82
2018-03-22T02:46:52.514Z,1004.79
2018-03-22T02:47:52.519Z,1004.80
2018-03-22T02:48:52.544Z,1004.79
2018-03-22T02:49:52.566Z,1004.79
2018-03-22T02:50:52.588Z,1004.77
2018-03-22T02:51:52.622Z,1004.75
2018-03-22T02:52:52.634Z,1004.73
2018-03-22T02:53:52.656Z,1004.70
2018-03-22T02:54:52.679Z,1004.70
2018-03-22T02:55:52.704Z,1004.66
2018-03-22T02:56:52.725Z,1004.66
2018-03-22T02:57:52.750Z,1004.71
2018-03-22T02:58:52.771Z,1004.69
2018-03-22T02:59:52.793Z,1004.70
2018-03-22T03:00:52.817Z,1004.69
2018-03-22T03:01:52.838Z,1004.66
2018-03-22T03:02:52.861Z,1004.64
2018-03-22T03:03:52.884Z,1004.59
2018-03-22T03:04:52.906Z,1004.53
2018-03-22T03:05:52.932Z,1004.59
2018-03-22T03:06:52.952Z,1004.57
2018-03-22T03:07:52.975Z,1004.52
2018-03-22T03:08:52.998Z,1004.59
2018-03-22T03:09:53.021Z,1004.54
2018-03-22T03:10:53.043Z,1004.57
2018-03-22T03:11:53.065Z,1004.52
2018-03-22T03:12:53.089Z,1004.56
2018-03-22T03:13:53.111Z,1004.55
2018-03-22T03:14:53.134Z,1004.52
2018-03-22T03:15:53.158Z,1004.54
2018-03-22T03:16:53.180Z,1004.48
2018-03-22T03:17:53.202Z,1004.51
2018-03-22T03:18:53.229Z,1004.43
2018-03-22T03:19:53.248Z,1004.43
2018-03-22T03:20:53.271Z,1004.39
2018-03-22T03:21:53.293Z,1004.36
2018-03-22T03:22:53.314Z,1004.40
2018-03-22T03:23:53.338Z,1004.32
2018-03-22T03:24:53.364Z,1004.31
2018-03-22T03:25:53.384Z,1004.28
2018-03-22T03:26:53.413Z,1004.32
2018-03-22T03:27:53.430Z,1004.29
2018-03-22T03:28:53.455Z,1004.23
2018-03-22T03:29:53.475Z,1004.31
2018-03-22T03:30:53.498Z,1004.32
2018-03-22T03:31:53.522Z,1004.38
2018-03-22T03:32:53.543Z,1004.30
2018-03-22T03:33:53.565Z,1004.31
2018-03-22T03:34:54.758Z,1004.26
2018-03-22T03:35:53.613Z,1004.23
2018-03-22T03:36:53.632Z,1004.18
2018-03-22T03:37:53.657Z,1004.19
2018-03-22T03:38:53.678Z,1004.17
2018-03-22T03:39:53.702Z,1004.16
2018-03-22T03:40:53.725Z,1004.15
2018-03-22T03:41:53.747Z,1004.18
2018-03-22T03:42:53.769Z,1004.18
2018-03-22T03:43:53.798Z,1004.16
2018-03-22T03:44:53.815Z,1004.16
2018-03-22T03:45:53.838Z,1004.17
2018-03-22T03:46:53.864Z,1004.18
2018-03-22T03:47:53.884Z,1004.13
2018-03-22T03:48:53.906Z,1004.12
2018-03-22T03:49:53.930Z,1004.10
2018-03-22T03:50:53.951Z,1004.14
2018-03-22T03:51:53.975Z,1004.12
2018-03-22T03:52:53.998Z,1004.10
2018-03-22T03:53:54.022Z,1004.17
2018-03-22T03:54:54.042Z,1004.09
2018-03-22T03:55:54.065Z,1004.05
2018-03-22T03:56:54.091Z,1004.14
2018-03-22T03:57:54.111Z,1004.10
2018-03-22T03:58:54.133Z,1004.08
2018-03-22T03:59:54.159Z,1004.10
2018-03-22T04:00:54.178Z,1004.11
2018-03-22T04:01:54.201Z,1004.12
2018-03-22T04:02:54.224Z,1004.09
2018-03-22T04:03:54.247Z,1004.11
2018-03-22T04:04:54.269Z,1004.13
2018-03-22T04:05:54.292Z,1004.10
2018-03-22T04:06:54.314Z,1004.08
2018-03-22T04:07:54.338Z,1004.10
2018-03-22T04:08:54.362Z,1004.09
2018-03-22T04:09:54.386Z,1004.11
2018-03-22T04:10:54.406Z,1004.09
2018-03-22T04:11:54.428Z,1004.06
2018-03-22T04:12:54.450Z,1004.00
2018-03-22T04:13:54.474Z,1003.99
2018-03-22T04:14:54.495Z,1003.95
2018-03-22T04:15:54.518Z,1003.87
2018-03-22T04:16:54.540Z,1003.93
2018-03-22T04:17:54.564Z,1003.83
2018-03-22T04:18:54.586Z,1003.92
2018-03-22T04:19:54.609Z,1003.91
2018-03-22T04:20:54.634Z,1003.92
2018-03-22T04:21:54.653Z,1003.99
2018-03-22T04:22:54.678Z,1003.96
2018-03-22T04:23:54.699Z,1003.98
2018-03-22T04:24:54.721Z,1003.89
2018-03-22T04:25:54.744Z,1003.92
2018-03-22T04:26:54.807Z,1003.90
2018-03-22T04:27:54.790Z,1003.91
2018-03-22T04:28:54.813Z,1003.92
2018-03-22T04:29:54.835Z,1003.92
2018-03-22T04:30:54.858Z,1003.90
2018-03-22T04:31:54.879Z,1003.93
2018-03-22T04:32:54.901Z,1003.91
2018-03-22T04:33:54.928Z,1003.90
2018-03-22T04:34:54.946Z,1003.90
2018-03-22T04:35:54.969Z,1003.92
2018-03-22T04:36:54.992Z,1003.91
2018-03-22T04:37:55.015Z,1003.89
2018-03-22T04:38:55.036Z,1003.87
2018-03-22T04:39:55.061Z,1003.88
2018-03-22T04:40:55.083Z,1003.87
2018-03-22T04:41:55.106Z,1003.86
2018-03-22T04:42:55.127Z,1003.83
2018-03-22T04:43:55.149Z,1003.79
2018-03-22T04:44:55.171Z,1003.80
2018-03-22T04:45:55.195Z,1003.79
2018-03-22T04:46:55.216Z,1003.85
2018-03-22T04:47:55.240Z,1003.77
2018-03-22T04:48:55.262Z,1003.81
2018-03-22T04:49:55.286Z,1003.77
2018-03-22T04:50:55.312Z,1003.79
2018-03-22T04:51:55.330Z,1003.79
2018-03-22T04:52:55.356Z,1003.80
2018-03-22T04:53:55.376Z,1003.80
2018-03-22T04:54:55.398Z,1003.76
2018-03-22T04:55:55.424Z,1003.75
2018-03-22T04:56:55.443Z,1003.79
2018-03-22T04:57:55.466Z,1003.77
2018-03-22T04:58:55.489Z,1003.76
2018-03-22T04:59:55.510Z,1003.73
2018-03-22T05:00:55.533Z,1003.74
2018-03-22T05:01:55.556Z,1003.69
2018-03-22T05:02:55.578Z,1003.73
2018-03-22T05:03:55.600Z,1003.72
2018-03-22T05:04:55.623Z,1003.70
2018-03-22T05:05:55.646Z,1003.65
2018-03-22T05:06:55.680Z,1003.70
2018-03-22T05:07:55.691Z,1003.69
2018-03-22T05:08:55.713Z,1003.68
2018-03-22T05:09:55.736Z,1003.69
2018-03-22T05:10:55.756Z,1003.71
2018-03-22T05:11:55.780Z,1003.69
2018-03-22T05:12:55.803Z,1003.68
2018-03-22T05:13:55.826Z,1003.63
2018-03-22T05:14:55.849Z,1003.61
2018-03-22T05:15:55.870Z,1003.62
2018-03-22T05:16:55.895Z,1003.61
2018-03-22T05:17:55.915Z,1003.60
2018-03-22T05:18:55.938Z,1003.56
2018-03-22T05:19:55.958Z,1003.56
2018-03-22T05:20:55.982Z,1003.60
2018-03-22T05:21:56.005Z,1003.59
2018-03-22T05:22:56.027Z,1003.63
2018-03-22T05:23:56.050Z,1003.60
2018-03-22T05:24:56.073Z,1003.61
2018-03-22T05:25:56.096Z,1003.60
2018-03-22T05:26:56.117Z,1003.51
2018-03-22T05:27:56.139Z,1003.54
2018-03-22T05:28:56.216Z,1003.44
2018-03-22T05:29:56.188Z,1003.48
2018-03-22T05:30:56.206Z,1003.44
2018-03-22T05:31:56.230Z,1003.40
2018-03-22T05:32:56.253Z,1003.40
2018-03-22T05:33:56.275Z,1003.46
2018-03-22T05:34:56.297Z,1003.38
2018-03-22T05:35:56.319Z,1003.41
2018-03-22T05:36:56.343Z,1003.42
2018-03-22T05:37:56.365Z,1003.43
2018-03-22T05:38:56.391Z,1003.37
2018-03-22T05:39:56.455Z,1003.36
2018-03-22T05:40:56.433Z,1003.33
2018-03-22T05:41:56.456Z,1003.36
2018-03-22T05:42:56.477Z,1003.32
2018-03-22T05:43:56.503Z,1003.23
2018-03-22T05:44:56.522Z,1003.22
2018-03-22T05:45:56.547Z,1003.24
2018-03-22T05:46:56.567Z,1003.22
2018-03-22T05:47:56.590Z,1003.24
2018-03-22T05:48:56.613Z,1003.20
2018-03-22T05:49:56.636Z,1003.24
2018-03-22T05:50:56.661Z,1003.27
2018-03-22T05:51:56.680Z,1003.22
2018-03-22T05:52:56.705Z,1003.27
2018-03-22T05:53:56.726Z,1003.23
2018-03-22T05:54:56.753Z,1003.24
2018-03-22T05:55:56.774Z,1003.23
2018-03-22T05:56:56.794Z,1003.28
2018-03-22T05:57:56.816Z,1003.27
2018-03-22T05:58:56.838Z,1003.25
2018-03-22T05:59:56.865Z,1003.28
2018-03-22T06:00:56.884Z,1003.28
2018-03-22T06:01:56.907Z,1003.26
2018-03-22T06:02:56.938Z,1003.26
2018-03-22T06:03:56.952Z,1003.18
2018-03-22T06:04:56.977Z,1003.19
2018-03-22T06:05:56.997Z,1003.23
2018-03-22T06:06:57.020Z,1003.18
2018-03-22T06:07:57.043Z,1003.17
2018-03-22T06:08:57.066Z,1003.17
2018-03-22T06:09:57.090Z,1003.15
2018-03-22T06:10:57.112Z,1003.15
2018-03-22T06:11:57.135Z,1003.14
2018-03-22T06:12:57.158Z,1003.06
2018-03-22T06:13:57.182Z,1003.10
2018-03-22T06:14:57.204Z,1003.07
2018-03-22T06:15:57.227Z,1003.08
2018-03-22T06:16:57.250Z,1003.12
2018-03-22T06:17:57.274Z,1003.11
2018-03-22T06:18:57.295Z,1003.14
2018-03-22T06:19:57.320Z,1003.10
2018-03-22T06:20:57.345Z,1003.12
2018-03-22T06:21:57.367Z,1003.09
2018-03-22T06:22:57.400Z,1003.10
2018-03-22T06:23:57.413Z,1003.05
2018-03-22T06:24:57.443Z,1003.05
2018-03-22T06:25:57.460Z,1003.04
2018-03-22T06:26:57.488Z,1003.09
2018-03-22T06:27:57.507Z,1003.07
2018-03-22T06:28:57.531Z,1003.09
2018-03-22T06:29:57.554Z,1003.11
2018-03-22T06:30:57.577Z,1003.00
2018-03-22T06:31:57.601Z,1003.07
2018-03-22T06:32:57.625Z,1003.05
2018-03-22T06:33:57.649Z,1003.03
2018-03-22T06:34:57.672Z,1002.99
2018-03-22T06:35:57.696Z,1002.99
2018-03-22T06:36:57.720Z,1003.00
2018-03-22T06:37:57.744Z,1003.01
2018-03-22T06:38:57.766Z,1002.99
2018-03-22T06:39:57.791Z,1002.98
2018-03-22T06:40:57.815Z,1002.99
2018-03-22T06:41:57.839Z,1003.06
2018-03-22T06:42:57.862Z,1003.07
2018-03-22T06:43:57.886Z,1003.03
2018-03-22T06:44:57.910Z,1003.05
2018-03-22T06:45:57.933Z,1003.03
2018-03-22T06:46:57.957Z,1003.06
2018-03-22T06:47:57.982Z,1003.06
2018-03-22T06:48:58.005Z,1003.04
2018-03-22T06:49:58.033Z,1003.02
2018-03-22T06:50:58.057Z,1002.99
2018-03-22T06:51:58.077Z,1003.03
2018-03-22T06:52:58.103Z,1003.05
2018-03-22T06:53:58.133Z,1003.05
2018-03-22T06:54:58.151Z,1002.97
2018-03-22T06:55:58.175Z,1002.96
2018-03-22T06:56:58.224Z,1003.02
2018-03-22T06:57:58.225Z,1003.02
2018-03-22T06:58:58.248Z,1002.96
2018-03-22T06:59:58.273Z,1003.00
2018-03-22T07:00:58.298Z,1002.97
2018-03-22T07:01:58.322Z,1002.93
2018-03-22T07:02:58.347Z,1002.91
2018-03-22T07:03:58.372Z,1002.97
2018-03-22T07:04:58.397Z,1003.00
2018-03-22T07:05:58.426Z,1003.04
2018-03-22T07:06:58.487Z,1003.02
2018-03-22T07:07:58.470Z,1003.03
2018-03-22T07:08:58.496Z,1003.01
2018-03-22T07:09:58.521Z,1002.95
2018-03-22T07:10:58.546Z,1002.97
2018-03-22T07:11:58.571Z,1002.98
2018-03-22T07:12:58.596Z,1002.92
2018-03-22T07:13:58.622Z,1002.89
2018-03-22T07:14:58.646Z,1002.85
2018-03-22T07:15:58.673Z,1002.86
2018-03-22T07:16:58.698Z,1002.88
2018-03-22T07:17:58.723Z,1002.87
2018-03-22T07:18:58.748Z,1002.91
2018-03-22T07:19:58.774Z,1002.87
2018-03-22T07:20:58.799Z,1002.91
2018-03-22T07:21:58.824Z,1002.96
2018-03-22T07:22:58.850Z,1002.96
2018-03-22T07:23:58.875Z,1003.01
2018-03-22T07:24:58.902Z,1002.95
2018-03-22T07:25:58.941Z,1002.94
2018-03-22T07:26:58.956Z,1002.96
2018-03-22T07:27:58.981Z,1002.90
2018-03-22T07:28:59.007Z,1002.94
2018-03-22T07:29:59.033Z,1002.92
2018-03-22T07:30:59.057Z,1002.93
2018-03-22T07:31:59.084Z,1002.99
2018-03-22T07:32:59.111Z,1003.00
2018-03-22T07:33:59.136Z,1002.94
2018-03-22T07:34:59.163Z,1002.95
2018-03-22T07:35:59.190Z,1002.89
2018-03-22T07:36:59.216Z,1002.88
2018-03-22T07:37:59.243Z,1002.83
2018-03-22T07:38:59.275Z,1002.80
2018-03-22T07:39:59.295Z,1002.72
2018-03-22T07:40:59.321Z,1002.72
2018-03-22T07:41:59.349Z,1002.73
2018-03-22T07:42:59.375Z,1002.68
2018-03-22T07:43:59.401Z,1002.68
2018-03-22T07:44:59.427Z,1002.67
2018-03-22T07:45:59.456Z,1002.77
2018-03-22T07:46:59.482Z,1002.81
2018-03-22T07:47:59.510Z,1002.84
2018-03-22T07:48:59.537Z,1002.79
2018-03-22T07:49:59.567Z,1002.78
2018-03-22T07:50:59.591Z,1002.75
2018-03-22T07:51:59.616Z,1002.72
2018-03-22T07:52:59.643Z,1002.68
2018-03-22T07:53:59.670Z,1002.67
2018-03-22T07:54:59.695Z,1002.70
2018-03-22T07:55:59.724Z,1002.65
2018-03-22T07:56:59.751Z,1002.65
2018-03-22T07:57:59.783Z,1002.61
2018-03-22T07:58:59.830Z,1002.54
2018-03-22T07:59:59.831Z,1002.55
2018-03-22T08:00:59.858Z,1002.57
2018-03-22T08:01:59.887Z,1002.52
2018-03-22T08:02:59.917Z,1002.51
2018-03-22T08:03:59.941Z,1002.60
2018-03-22T08:04:59.968Z,1002.60
2018-03-22T08:05:59.997Z,1002.58
2018-03-22T08:07:00.023Z,1002.68
2018-03-22T08:08:00.050Z,1002.67
2018-03-22T08:09:00.078Z,1002.72
2018-03-22T08:10:00.106Z,1002.74
2018-03-22T08:11:00.134Z,1002.71
2018-03-22T08:12:00.164Z,1002.74
2018-03-22T08:13:00.186Z,1002.78
2018-03-22T08:14:00.216Z,1002.76
2018-03-22T08:15:00.242Z,1002.77
2018-03-22T08:16:00.271Z,1002.76
2018-03-22T08:17:00.298Z,1002.74
2018-03-22T08:18:00.328Z,1002.73
2018-03-22T08:19:00.356Z,1002.82
2018-03-22T08:20:00.385Z,1002.76
2018-03-22T08:21:00.412Z,1002.78
2018-03-22T08:22:00.441Z,1002.71
2018-03-22T08:23:00.468Z,1002.71
2018-03-22T08:24:00.502Z,1002.69
2018-03-22T08:25:00.526Z,1002.69
2018-03-22T08:26:00.555Z,1002.69
2018-03-22T08:27:00.585Z,1002.64
2018-03-22T08:28:00.613Z,1002.69
2018-03-22T08:29:00.642Z,1002.70
2018-03-22T08:30:00.670Z,1002.69
2018-03-22T08:31:00.700Z,1002.67
2018-03-22T08:32:00.729Z,1002.69
2018-03-22T08:33:00.757Z,1002.67
2018-03-22T08:34:00.790Z,1002.71
2018-03-22T08:35:00.866Z,1002.69
2018-03-22T08:36:00.845Z,1002.67
2018-03-22T08:37:00.877Z,1002.70
2018-03-22T08:38:00.905Z,1002.73
2018-03-22T08:39:00.937Z,1002.75
2018-03-22T08:40:00.962Z,1002.74
2018-03-22T08:41:00.993Z,1002.74
2018-03-22T08:42:01.023Z,1002.74
2018-03-22T08:43:01.052Z,1002.75
2018-03-22T08:44:01.082Z,1002.79
2018-03-22T08:45:01.112Z,1002.80
2018-03-22T08:46:01.144Z,1002.75
2018-03-22T08:47:01.194Z,1002.78
2018-03-22T08:48:01.202Z,1002.70
2018-03-22T08:49:01.232Z,1002.74
2018-03-22T08:50:01.262Z,1002.74
2018-03-22T08:51:01.291Z,1002.75
2018-03-22T08:52:01.322Z,1002.78
2018-03-22T08:53:01.353Z,1002.81
2018-03-22T08:54:01.385Z,1002.79
2018-03-22T08:55:01.415Z,1002.80
2018-03-22T08:56:01.510Z,1002.84
2018-03-22T08:57:01.483Z,1002.79
2018-03-22T08:58:01.507Z,1002.74
2018-03-22T08:59:01.540Z,1002.71
2018-03-22T09:00:01.571Z,1002.66
2018-03-22T09:01:01.603Z,1002.64
2018-03-22T09:02:01.696Z,1002.66
2018-03-22T09:03:01.665Z,1002.62
2018-03-22T09:04:01.700Z,1002.61
2018-03-22T09:05:01.756Z,1002.59
2018-03-22T09:06:01.761Z,1002.58
2018-03-22T09:07:01.793Z,1002.53
2018-03-22T09:08:01.826Z,1002.56
2018-03-22T09:09:01.859Z,1002.60
2018-03-22T09:10:01.891Z,1002.51
2018-03-22T09:11:01.925Z,1002.65
2018-03-22T09:12:02.012Z,1002.56
2018-03-22T09:13:01.987Z,1002.55
2018-03-22T09:14:02.020Z,1002.53
2018-03-22T09:15:02.059Z,1002.42
2018-03-22T09:16:02.086Z,1002.47
2018-03-22T09:17:02.119Z,1002.41
2018-03-22T09:18:02.155Z,1002.44
2018-03-22T09:19:02.187Z,1002.44
2018-03-22T09:20:02.220Z,1002.45
2018-03-22T09:21:02.257Z,1002.43
2018-03-22T09:22:02.290Z,1002.37
2018-03-22T09:23:02.325Z,1002.39
2018-03-22T09:24:02.361Z,1002.31
2018-03-22T09:25:02.396Z,1002.24
2018-03-22T09:26:02.431Z,1002.23
2018-03-22T09:27:02.468Z,1002.34
2018-03-22T09:28:02.503Z,1002.27
2018-03-22T09:29:02.541Z,1002.28
2018-03-22T09:30:02.578Z,1002.30
2018-03-22T09:31:02.614Z,1002.13
2018-03-22T09:32:02.650Z,1002.08
2018-03-22T09:33:02.690Z,1002.22
2018-03-22T09:34:02.726Z,1002.47
2018-03-22T09:35:02.763Z,1002.52
2018-03-22T09:36:02.800Z,1002.40
2018-03-22T09:37:02.837Z,1002.23
2018-03-22T09:38:02.876Z,1002.17
2018-03-22T09:39:02.913Z,1002.15
2018-03-22T09:40:02.953Z,1002.14
2018-03-22T09:41:02.990Z,1002.06
2018-03-22T09:42:03.028Z,1002.03
2018-03-22T09:43:03.068Z,1001.86
2018-03-22T09:44:03.107Z,1001.92
2018-03-22T09:45:03.146Z,1001.91
2018-03-22T09:46:03.185Z,1001.86
2018-03-22T09:47:03.229Z,1001.92
2018-03-22T09:48:03.263Z,1001.75
2018-03-22T09:49:03.303Z,1001.68
2018-03-22T09:50:03.345Z,1001.74
2018-03-22T09:51:03.380Z,1001.74
2018-03-22T09:52:03.420Z,1001.82
2018-03-22T09:53:03.461Z,1001.82
2018-03-22T09:54:03.499Z,1001.81
2018-03-22T09:55:03.537Z,1002.11
2018-03-22T09:56:03.576Z,1002.03
2018-03-22T09:57:03.651Z,1001.86
2018-03-22T09:58:03.655Z,1001.83
2018-03-22T09:59:03.693Z,1001.60
2018-03-22T10:00:03.735Z,1001.55
2018-03-22T10:01:03.777Z,1001.50
2018-03-22T10:02:03.811Z,1001.53
2018-03-22T10:03:03.850Z,1001.55
2018-03-22T10:04:03.894Z,1001.46
2018-03-22T10:05:03.930Z,1001.47
2018-03-22T10:06:03.969Z,1001.46
2018-03-22T10:07:04.006Z,1001.51
2018-03-22T10:08:04.046Z,1001.42
2018-03-22T10:09:04.083Z,1001.34
2018-03-22T10:10:04.121Z,1001.37
2018-03-22T10:11:04.159Z,1001.39
2018-03-22T10:12:04.198Z,1001.40
2018-03-22T10:13:04.236Z,1001.42
2018-03-22T10:14:04.272Z,1001.45
2018-03-22T10:15:04.309Z,1001.48
2018-03-22T10:16:04.346Z,1001.49
2018-03-22T10:17:04.383Z,1001.45
2018-03-22T10:18:04.420Z,1001.42
2018-03-22T10:19:04.457Z,1001.37
2018-03-22T10:20:04.493Z,1001.37
2018-03-22T10:21:04.529Z,1001.34
2018-03-22T10:22:04.565Z,1001.39
2018-03-22T10:23:04.601Z,1001.38
2018-03-22T10:24:04.636Z,1001.44
2018-03-22T10:25:04.677Z,1001.47
2018-03-22T10:26:04.710Z,1001.43
2018-03-22T10:27:04.743Z,1001.41
2018-03-22T10:28:04.779Z,1001.35
2018-03-22T10:29:04.813Z,1001.29
2018-03-22T10:30:04.850Z,1001.30
2018-03-22T10:31:04.886Z,1001.22
2018-03-22T10:32:04.922Z,1001.26
2018-03-22T10:33:04.955Z,1001.21
2018-03-22T10:34:04.990Z,1001.27
2018-03-22T10:35:05.024Z,1001.29
2018-03-22T10:36:05.059Z,1001.28
2018-03-22T10:37:05.094Z,1001.47
2018-03-22T10:38:05.129Z,1001.38
2018-03-22T10:39:05.163Z,1001.56
2018-03-22T10:40:05.200Z,1001.44
2018-03-22T10:41:05.234Z,1001.51
2018-03-22T10:42:05.268Z,1001.34
2018-03-22T10:43:05.308Z,1001.34
2018-03-22T10:44:05.349Z,1001.28
2018-03-22T10:45:05.376Z,1001.19
2018-03-22T10:46:05.411Z,1001.13
2018-03-22T10:47:05.448Z,1001.11
2018-03-22T10:48:05.482Z,1001.02
2018-03-22T10:49:05.519Z,1001.01
2018-03-22T10:50:05.560Z,1001.03
2018-03-22T10:51:05.596Z,1001.15
2018-03-22T10:52:05.626Z,1001.25
2018-03-22T10:53:05.663Z,1001.32
2018-03-22T10:54:05.700Z,1001.32
2018-03-22T10:55:05.737Z,1001.30
2018-03-22T10:56:05.770Z,1001.37
2018-03-22T10:57:05.809Z,1001.41
2018-03-22T10:58:05.844Z,1001.52
2018-03-22T10:59:05.878Z,1001.44
2018-03-22T11:00:05.915Z,1001.20
2018-03-22T11:01:05.951Z,1001.16
2018-03-22T11:02:05.989Z,1001.16
2018-03-22T11:03:06.022Z,1001.43
2018-03-22T11:04:06.060Z,1001.51
2018-03-22T11:05:06.099Z,1001.64
2018-03-22T11:06:06.177Z,1001.67
2018-03-22T11:07:06.169Z,1001.35
2018-03-22T11:08:06.206Z,1001.25
2018-03-22T11:09:06.246Z,1001.36
2018-03-22T11:10:06.281Z,1001.25
2018-03-22T11:11:06.320Z,1001.12
2018-03-22T11:12:06.359Z,1001.22
2018-03-22T11:13:06.397Z,1001.31
2018-03-22T11:14:06.436Z,1001.61
2018-03-22T11:15:06.474Z,1001.27
2018-03-22T11:16:06.515Z,1001.14
2018-03-22T11:17:06.552Z,1001.75
2018-03-22T11:18:06.592Z,1001.15
2018-03-22T11:19:06.630Z,1001.62
2018-03-22T11:20:06.669Z,1001.62
2018-03-22T11:21:06.710Z,1001.22
2018-03-22T11:22:06.751Z,1001.07
2018-03-22T11:23:06.786Z,1001.91
2018-03-22T11:24:06.828Z,1001.22
2018-03-22T11:25:06.869Z,1000.85
2018-03-22T11:26:06.910Z,1000.82
2018-03-22T11:27:06.949Z,1000.82
2018-03-22T11:28:06.990Z,1000.91
2018-03-22T11:29:07.031Z,1000.69
2018-03-22T11:30:07.072Z,1000.68
2018-03-22T11:31:07.112Z,1000.79
2018-03-22T11:32:07.153Z,1000.64
2018-03-22T11:33:07.193Z,1000.50
2018-03-22T11:34:07.234Z,1000.41
2018-03-22T11:35:07.274Z,1000.33
2018-03-22T11:36:07.314Z,1000.31
2018-03-22T11:37:07.354Z,1000.35
2018-03-22T11:38:07.394Z,1000.52
2018-03-22T11:39:07.434Z,1000.26
2018-03-22T11:40:07.475Z,1000.06
2018-03-22T11:41:07.515Z,999.98
2018-03-22T11:42:07.555Z,999.87
2018-03-22T11:43:07.646Z,999.92
2018-03-22T11:44:07.634Z,999.85
2018-03-22T11:45:07.673Z,999.82
2018-03-22T11:46:07.714Z,999.81
2018-03-22T11:47:07.750Z,999.80
2018-03-22T11:48:07.788Z,999.75
2018-03-22T11:49:07.825Z,999.72
2018-03-22T11:50:07.864Z,999.72
2018-03-22T11:51:07.899Z,999.74
2018-03-22T11:52:07.937Z,999.72
2018-03-22T11:53:07.975Z,999.72
2018-03-22T11:54:08.010Z,999.77
2018-03-22T11:55:08.047Z,999.83
2018-03-22T11:56:08.082Z,999.77
2018-03-22T11:57:08.119Z,999.76
2018-03-22T11:58:08.154Z,999.78
2018-03-22T11:59:08.191Z,999.80
2018-03-22T12:00:08.224Z,999.73
2018-03-22T12:01:08.260Z,999.69
2018-03-22T12:02:08.295Z,999.64
2018-03-22T12:03:08.329Z,999.67
2018-03-22T12:04:08.363Z,999.60
2018-03-22T12:05:08.398Z,999.64
2018-03-22T12:06:08.432Z,999.65
2018-03-22T12:07:08.465Z,999.67